Historyczne dane pomiarowe

Dodano dane terminowe – wersja testowa.

Dane z okresu 1951-2019

Wersja bazy: 1.34 [2019-03-16, lista zmian], aktualizacja planowana na 2019-04-15

Dane meteo z obszaru Polski uzyskane na podstawie danych udostępnionych przez Instytut Meteorologii i Gospodarki Wodnej – Państwowy Instytut Badawczy.

 

Wybierz Datę:    

       

TemperaturaWilgotnośćWiatrCiśnienieOpadyŚniegCzas trwania zjawisk
 Stacja t tx tn tng RH VA  wxwx mslp ppp RRR   cm mm wxwxwxwxwxwxwx
1908-10-11 11.6 18.9 9.5--------- 0.0--x---------
1908-10-12 10.5 17.1 3.5--------- 0.0--x---------
1908-10-13 13.0 20.6 7.8--------- 0.0--x---------
1908-10-14 11.1 21.0 4.5--------- 0.0--x---------
1908-10-15 10.4 19.0 3.5--------- 0.0--x---------
1908-10-16 7.9 10.4 6.7--------- 0.0--x---------
1908-10-17 7.0 8.7 5.1--------- 0.0--x---------
1908-10-18 5.6 7.4 4.5--------- 0.1--x---------
1908-10-19 0.7 5.4 -2.4--------- 0.0--x---------
1908-10-20 -2.7 2.9 -6.6--------- 0.0--x---------
1908-10-21 -1.4 1.4 -6.7--------- 0.0--x---------
1908-10-22 0.2 1.1 -1.5--------- 0.0--x---------
1908-10-23 -1.9 1.5 -6.7--------- 0.0--x---------
1908-10-24 2.8 4.5 -3.5--------- 0.0--x---------
1908-10-25 9.2 12.6 3.6--------- 0.0--x---------
1908-10-26 9.5 14.5 4.5--------- 0.0--x---------
1908-10-27 7.2 11.5 3.7--------- 0.0--x---------
1908-10-28 6.3 13.5 2.0--------- 0.0--x---------
1908-10-29 9.3 16.9 0.6--------- 0.0--x---------
1908-10-30 10.4 15.4 2.4--------- 0.0--x---------
1908-10-31 5.9 11.0 2.0--------- 0.0--x---------
1908-11-01 3.9 7.1 0.0--------- 0.0--x---------
1908-11-02 3.9 5.0 2.4--------- 0.0--x---------
1908-11-03 2.8 4.9 1.5--------- 0.0--x---------
1908-11-04 -0.6 1.9 -3.7--------- 0.0--x---------
1908-11-05 -0.4 3.5 -2.5--------- 0.1--x---------
1908-11-06 -1.6 3.1 -4.2--------- 0.9--x---------
1908-11-07 -3.8 1.5 -8.2--------- 0.0--x---------
1908-11-08 -7.4 1.7-11.5--------- 0.0--x---------
1908-11-09 -4.8 -0.2-11.7--------- 0.0--x---------
3.3 ms

 

Źródłem pochodzenia danych jest Instytut Meteorologii i Gospodarki Wodnej – Państwowy Instytut Badawczy. Dane Instytutu Meteorologii i Gospodarki Wodnej – Państwowego Instytutu Badawczego zostały przetworzone.

Dane źródłowe można odnaleźć na stronie https://dane.imgw.pl